Lester B. Pearson International Airport

METAR CYYZ TAF CYYZ
-1 °C
°C
-
°C
53m
Alter
17:52:59
LT
16:52
UTC
0 ft

1.000

2.000

3.000

4.000

5.000

BKN 1.500
MVFR
<?= Yii::t('app', 'Wind direction') ?> <?= Yii::t('app', 'of'); ?>
230°
17:22
Sonne unter
80%
Luftfeuchtigkeit
Windscherung
Geschlossen/Schnee
RWY-Sichtweite
RWY Zustand
Vert. Sichtweite
Min. Sichtbarkeit
CAVOK
Trend
Korrektur
Besonderer Bericht
29,98 inHg
QNH
METAR CYYZ 271600Z 23010G15KT 10SM BKN015 M01/M04 A2998 RMK SC7 SLP162
Durchbrochene Wolken
1 kt
1 kt
11:00
MVFR
12 kt
12:00
MVFR
12 kt
13:00
MVFR
12 kt
14:00
MVFR
12 kt
15:00
MVFR
12 kt
16:00
MVFR
12 kt
17:00
VFR
15 kt
10 mi
Sichtweite
1.500 ft
Wolkendecke
10-15 kt
Wind
metar-taf.com/CYYZ

Metar-Taf.com

Visueller Decoder

Wir und Dritte verfolgen dein Internetverhalten auf unserer Website mit Cookies. Wenn du fortfährst, gehen wir davon aus, dass du mit unserer Cookie-Richtlinie einverstanden bist.